Time;durP1;ratioP1;P1;durP2;ratioP2;P2;SDS_P1;SDS_P2;PMS_P1;PMS_P2;Temp;Humidity;BMP_temperature;BMP_pressure;BME280_temperature;BME280_humidity;BME280_pressure;Samples;Min_cycle;Max_cycle;Signal;HPM_P1;HPM_P2
2023/06/15 00:00:17;;;;;;;2.55;0.75;;;18.60;92.70;;;;;;4418300;32;20186;-64
2023/06/15 00:02:42;;;;;;;0.45;0.45;;;18.70;92.80;;;;;;4421884;32;20090;-62
2023/06/15 00:05:08;;;;;;;0.30;0.30;;;18.60;92.80;;;;;;4419772;32;20072;-64
2023/06/15 00:07:34;;;;;;;0.40;0.40;;;18.60;92.90;;;;;;4418971;32;20089;-64
2023/06/15 00:10:00;;;;;;;0.55;0.55;;;18.60;92.90;;;;;;4419344;32;20119;-65
2023/06/15 00:12:25;;;;;;;0.57;0.40;;;18.50;93.00;;;;;;4424415;32;20076;-63
2023/06/15 00:14:51;;;;;;;0.47;0.47;;;18.50;93.30;;;;;;4421565;32;20069;-64
2023/06/15 00:17:17;;;;;;;0.50;0.50;;;18.40;93.40;;;;;;4419532;32;20090;-63
2023/06/15 00:19:44;;;;;;;1.05;0.75;;;18.40;93.50;;;;;;4423069;32;20092;-62
2023/06/15 00:22:14;;;;;;;2.78;0.47;;;18.30;93.70;;;;;;4419891;32;20098;-64
2023/06/15 00:24:41;;;;;;;0.30;0.30;;;18.20;93.80;;;;;;4419976;32;21125;-62
2023/06/15 00:27:08;;;;;;;0.20;0.20;;;18.20;94.00;;;;;;4421351;32;20117;-64
2023/06/15 00:29:33;;;;;;;0.40;0.30;;;18.10;94.20;;;;;;4421538;32;20089;-64
2023/06/15 00:31:59;;;;;;;4.28;1.67;;;18.10;94.30;;;;;;4421952;32;20081;-65
2023/06/15 00:34:25;;;;;;;0.40;0.40;;;18.00;94.50;;;;;;4418963;32;20125;-63
2023/06/15 00:36:51;;;;;;;0.40;0.40;;;17.90;95.10;;;;;;4415981;32;20505;-64
2023/06/15 00:39:16;;;;;;;10.57;1.60;;;17.80;95.00;;;;;;4418586;32;20226;-65
2023/06/15 00:41:43;;;;;;;0.52;0.50;;;17.70;95.30;;;;;;4418643;32;20069;-63
2023/06/15 00:44:09;;;;;;;0.55;0.55;;;17.70;95.40;;;;;;4420859;32;20085;-62
2023/06/15 00:46:35;;;;;;;0.30;0.30;;;17.60;95.70;;;;;;4417859;32;21164;-64
2023/06/15 00:49:01;;;;;;;0.40;0.40;;;17.60;95.90;;;;;;4418615;32;20153;-63
2023/06/15 00:51:27;;;;;;;0.40;0.40;;;17.60;95.90;;;;;;4417803;32;20128;-62
2023/06/15 00:53:52;;;;;;;0.40;0.37;;;17.60;95.90;;;;;;4417418;32;20062;-65
2023/06/15 00:56:18;;;;;;;0.30;0.30;;;17.60;96.00;;;;;;4419688;32;20528;-63
2023/06/15 00:58:44;;;;;;;11.65;1.15;;;17.50;96.10;;;;;;4419365;32;20124;-64
2023/06/15 01:01:10;;;;;;;0.35;0.35;;;17.50;96.30;;;;;;4419126;32;20061;-65
2023/06/15 01:03:35;;;;;;;0.50;0.50;;;17.60;96.50;;;;;;4418276;32;20077;-66
2023/06/15 01:06:12;;;;;;;0.82;0.50;;;17.60;96.70;;;;;;4403045;32;20084;-64
2023/06/15 01:08:41;;;;;;;1.10;0.40;;;17.50;96.60;;;;;;4403264;32;20118;-63
2023/06/15 01:11:07;;;;;;;0.40;0.40;;;17.50;96.70;;;;;;4417112;32;20520;-63
2023/06/15 01:13:34;;;;;;;0.30;0.30;;;17.50;96.90;;;;;;4406115;32;21566;-64
2023/06/15 01:16:06;;;;;;;3.00;1.42;;;17.40;97.00;;;;;;4416889;32;20093;-64
2023/06/15 01:18:34;;;;;;;1.05;0.75;;;17.40;97.00;;;;;;4419593;32;20077;-65
2023/06/15 01:21:02;;;;;;;1.77;0.90;;;17.50;97.10;;;;;;4415945;32;20157;-63
2023/06/15 01:23:41;;;;;;;0.28;0.25;;;17.40;97.40;;;;;;4419492;32;20077;-64
2023/06/15 01:26:09;;;;;;;3.78;0.85;;;17.30;97.70;;;;;;4405989;32;20154;-64
2023/06/15 01:28:40;;;;;;;0.30;0.30;;;17.30;98.10;;;;;;4419352;32;20094;-63
2023/06/15 01:31:06;;;;;;;0.50;0.50;;;17.30;98.10;;;;;;4405649;32;20081;-63
2023/06/15 01:33:32;;;;;;;0.40;0.40;;;17.30;98.20;;;;;;4416117;32;20553;-63
2023/06/15 01:35:58;;;;;;;0.50;0.50;;;17.20;98.50;;;;;;4416203;32;20090;-64
2023/06/15 01:38:28;;;;;;;0.30;0.30;;;17.20;98.70;;;;;;4419138;32;20065;-65
2023/06/15 01:40:54;;;;;;;0.20;0.20;;;17.10;98.90;;;;;;4416911;32;20064;-62
2023/06/15 01:43:24;;;;;;;1.35;0.57;;;17.00;99.00;;;;;;4419354;32;20157;-63
2023/06/15 01:45:51;;;;;;;0.85;0.82;;;17.10;98.90;;;;;;4419152;32;20602;-62
2023/06/15 01:48:17;;;;;;;0.95;0.88;;;17.20;98.80;;;;;;4413525;32;20097;-65
2023/06/15 01:50:43;;;;;;;0.50;0.50;;;17.20;99.10;;;;;;4417276;32;20061;-63
2023/06/15 01:53:09;;;;;;;0.30;0.30;;;17.10;99.30;;;;;;4417210;32;20105;-62
2023/06/15 01:55:35;;;;;;;0.75;0.47;;;17.00;99.80;;;;;;4417507;32;20088;-64
2023/06/15 01:58:00;;;;;;;0.88;0.60;;;17.10;99.40;;;;;;4419182;32;20065;-64
2023/06/15 02:00:28;;;;;;;0.60;0.60;;;17.00;99.50;;;;;;4418880;32;20085;-64
2023/06/15 02:02:54;;;;;;;1.33;0.85;;;17.00;99.70;;;;;;4419651;32;20062;-62
2023/06/15 02:05:19;;;;;;;0.43;0.43;;;17.00;99.40;;;;;;4419243;32;20128;-63
2023/06/15 02:07:45;;;;;;;3.92;1.58;;;17.10;99.40;;;;;;4419667;32;20520;-63
2023/06/15 02:10:10;;;;;;;0.70;0.70;;;17.00;99.50;;;;;;4421958;32;20106;-62
2023/06/15 02:12:36;;;;;;;0.50;0.50;;;16.90;99.80;;;;;;4416310;32;20586;-62
2023/06/15 02:15:03;;;;;;;1.10;0.80;;;16.90;99.90;;;;;;4418987;32;20097;-64
2023/06/15 02:17:38;;;;;;;0.40;0.40;;;16.90;99.90;;;;;;4418231;32;20106;-63
2023/06/15 02:20:05;;;;;;;0.52;0.52;;;16.80;99.90;;;;;;4414794;32;21473;-62
2023/06/15 02:22:31;;;;;;;0.30;0.30;;;16.80;99.90;;;;;;4418549;32;20450;-64
2023/06/15 02:24:56;;;;;;;3.10;1.20;;;16.80;99.90;;;;;;4417841;32;20073;-64
2023/06/15 02:27:22;;;;;;;0.60;0.60;;;16.70;99.90;;;;;;4421972;32;20069;-63
2023/06/15 02:29:47;;;;;;;0.40;0.40;;;16.70;99.90;;;;;;4419988;32;20564;-64
2023/06/15 02:32:42;;;;;;;0.30;0.30;;;16.60;99.90;;;;;;4421080;32;20065;-62
2023/06/15 02:35:10;;;;;;;0.40;0.40;;;16.60;99.90;;;;;;4419699;32;20140;-63
2023/06/15 02:37:35;;;;;;;10.82;0.50;;;16.60;99.90;;;;;;4418866;32;20097;-64
2023/06/15 02:40:03;;;;;;;0.45;0.45;;;16.70;99.90;;;;;;4421346;32;20076;-65
2023/06/15 02:42:29;;;;;;;0.85;0.60;;;16.70;99.90;;;;;;4416321;32;20102;-65
2023/06/15 02:44:55;;;;;;;1.92;0.80;;;16.70;99.90;;;;;;4420741;32;20093;-64
2023/06/15 02:47:21;;;;;;;0.37;0.37;;;16.70;99.90;;;;;;4416604;32;20101;-63
2023/06/15 02:49:46;;;;;;;1.27;0.88;;;16.60;99.90;;;;;;4419889;32;20061;-64
2023/06/15 02:52:11;;;;;;;0.85;0.73;;;16.60;99.90;;;;;;4418257;32;20113;-64
2023/06/15 02:54:37;;;;;;;2.85;1.52;;;16.50;99.90;;;;;;4407368;32;20073;-65
2023/06/15 02:57:06;;;;;;;0.30;0.30;;;16.60;99.90;;;;;;4422747;32;20097;-64
2023/06/15 02:59:33;;;;;;;0.20;0.20;;;16.50;99.90;;;;;;4422447;32;20231;-63
2023/06/15 03:02:00;;;;;;;0.40;0.40;;;16.50;99.90;;;;;;4422018;32;20407;-65
2023/06/15 03:04:27;;;;;;;1.60;1.10;;;16.50;99.90;;;;;;4423552;32;20174;-62
2023/06/15 03:06:56;;;;;;;0.22;0.22;;;16.40;99.90;;;;;;4418836;32;20074;-63
2023/06/15 03:09:22;;;;;;;0.30;0.30;;;16.30;99.90;;;;;;4421308;32;20198;-64
2023/06/15 03:11:47;;;;;;;0.25;0.25;;;16.30;99.90;;;;;;4404206;32;20626;-63
2023/06/15 03:14:13;;;;;;;0.28;0.28;;;16.50;99.90;;;;;;4422591;32;20399;-64
2023/06/15 03:16:41;;;;;;;0.80;0.80;;;16.50;99.90;;;;;;4421185;32;20081;-64
2023/06/15 03:19:07;;;;;;;0.30;0.30;;;16.50;99.90;;;;;;4421358;32;20073;-64
2023/06/15 03:21:32;;;;;;;0.40;0.40;;;16.50;99.90;;;;;;4404125;32;20089;-62
2023/06/15 03:23:58;;;;;;;0.43;0.43;;;16.50;99.90;;;;;;4419411;32;20101;-64
2023/06/15 03:26:26;;;;;;;1.90;0.85;;;16.50;99.90;;;;;;4422393;32;20098;-64
2023/06/15 03:28:53;;;;;;;1.02;0.75;;;16.50;99.90;;;;;;4422412;32;20073;-63
2023/06/15 03:31:19;;;;;;;0.43;0.28;;;16.60;99.90;;;;;;4421172;32;20133;-62
2023/06/15 03:33:45;;;;;;;2.12;0.75;;;16.50;99.90;;;;;;4422329;32;20113;-63
2023/06/15 03:36:13;;;;;;;0.30;0.30;;;16.50;99.90;;;;;;4417484;32;20152;-65
2023/06/15 03:38:40;;;;;;;0.30;0.30;;;16.40;99.90;;;;;;4420056;32;20081;-63
2023/06/15 03:41:06;;;;;;;0.30;0.30;;;16.50;99.90;;;;;;4418279;32;20200;-64
2023/06/15 03:43:32;;;;;;;0.50;0.50;;;16.50;99.90;;;;;;4423629;32;20612;-63
2023/06/15 03:45:57;;;;;;;1.27;0.60;;;16.60;99.90;;;;;;4419839;32;20165;-63
2023/06/15 03:48:23;;;;;;;0.30;0.30;;;16.60;99.90;;;;;;4420176;32;20105;-64
2023/06/15 03:50:48;;;;;;;0.70;0.45;;;16.60;99.90;;;;;;4420238;32;20070;-64
2023/06/15 03:53:14;;;;;;;0.50;0.50;;;16.60;99.90;;;;;;4418890;32;20130;-63
2023/06/15 03:55:39;;;;;;;0.28;0.28;;;16.50;99.90;;;;;;4422171;32;20073;-65
2023/06/15 03:58:05;;;;;;;0.57;0.45;;;16.50;99.90;;;;;;4422133;32;20061;-64
2023/06/15 04:00:30;;;;;;;0.35;0.35;;;16.70;99.90;;;;;;4418339;32;20073;-63
2023/06/15 04:02:56;;;;;;;0.85;0.55;;;16.60;99.90;;;;;;4419221;32;20061;-63
2023/06/15 04:05:22;;;;;;;1.08;0.77;;;16.60;99.90;;;;;;4419404;32;20092;-63
2023/06/15 04:07:48;;;;;;;13.55;2.25;;;16.60;99.90;;;;;;4420706;32;21086;-62
2023/06/15 04:10:13;;;;;;;0.20;0.20;;;16.60;99.90;;;;;;4419215;32;20187;-63
2023/06/15 04:12:39;;;;;;;0.30;0.30;;;16.60;99.90;;;;;;4418412;32;20105;-64
2023/06/15 04:15:05;;;;;;;0.40;0.40;;;16.50;99.90;;;;;;4417688;32;20092;-65
2023/06/15 04:17:32;;;;;;;0.32;0.32;;;16.50;99.90;;;;;;4420236;32;20056;-63
2023/06/15 04:19:57;;;;;;;8.68;1.05;;;16.50;99.90;;;;;;4420480;32;20517;-62
2023/06/15 04:22:23;;;;;;;0.52;0.52;;;16.60;99.90;;;;;;4414671;32;20076;-64
2023/06/15 04:24:48;;;;;;;0.40;0.40;;;16.50;99.90;;;;;;4418543;32;20497;-63
2023/06/15 04:27:18;;;;;;;0.57;0.50;;;16.60;99.90;;;;;;4420456;32;20089;-63
2023/06/15 04:29:45;;;;;;;0.45;0.45;;;16.60;99.90;;;;;;4419078;32;20089;-64
2023/06/15 04:32:11;;;;;;;0.40;0.40;;;16.60;99.90;;;;;;4406387;32;20130;-63
2023/06/15 04:34:37;;;;;;;1.50;0.80;;;16.60;99.90;;;;;;4419023;32;20877;-65
2023/06/15 04:37:06;;;;;;;0.90;0.65;;;16.60;99.90;;;;;;4436281;32;20069;-65
2023/06/15 04:39:32;;;;;;;0.30;0.30;;;16.70;99.90;;;;;;4434235;32;20799;-65
2023/06/15 04:41:57;;;;;;;0.47;0.47;;;16.70;99.90;;;;;;4435939;32;20077;-65
2023/06/15 04:44:23;;;;;;;0.52;0.50;;;16.70;99.90;;;;;;4437753;32;20098;-65
2023/06/15 04:46:48;;;;;;;0.43;0.43;;;16.70;99.90;;;;;;4435901;32;20093;-65
2023/06/15 04:49:14;;;;;;;0.40;0.40;;;16.70;99.90;;;;;;4434856;32;20093;-65
2023/06/15 04:51:40;;;;;;;0.75;0.57;;;16.60;99.90;;;;;;4437220;32;20070;-65
2023/06/15 04:54:05;;;;;;;0.68;0.68;;;16.60;99.90;;;;;;4438028;32;20065;-65
2023/06/15 04:56:31;;;;;;;0.50;0.50;;;16.50;99.90;;;;;;4438705;32;20611;-65
2023/06/15 04:58:56;;;;;;;0.40;0.40;;;16.60;99.90;;;;;;4430957;32;20084;-65
2023/06/15 05:01:22;;;;;;;0.45;0.40;;;16.50;99.90;;;;;;4427928;32;20164;-65
2023/06/15 05:03:47;;;;;;;1.90;1.35;;;16.50;99.90;;;;;;4433652;32;20090;-65
2023/06/15 05:06:13;;;;;;;0.30;0.30;;;16.50;99.90;;;;;;4431397;32;20030;-65
2023/06/15 05:08:39;;;;;;;0.88;0.88;;;16.60;99.90;;;;;;4432764;32;20568;-65
2023/06/15 05:11:05;;;;;;;0.60;0.60;;;16.70;99.90;;;;;;4427198;32;20134;-65
2023/06/15 05:13:31;;;;;;;1.45;1.17;;;16.70;99.90;;;;;;4427459;32;20089;-65
2023/06/15 05:15:56;;;;;;;0.65;0.45;;;16.80;99.90;;;;;;4425373;32;20121;-65
2023/06/15 05:18:22;;;;;;;0.80;0.73;;;16.90;99.90;;;;;;4422436;32;20129;-65
2023/06/15 05:20:48;;;;;;;0.47;0.47;;;17.00;99.90;;;;;;4427570;32;20089;-65
2023/06/15 05:23:13;;;;;;;0.65;0.65;;;17.10;99.90;;;;;;4426988;32;20136;-65
2023/06/15 05:25:39;;;;;;;0.45;0.45;;;17.10;99.90;;;;;;4423153;32;20266;-65
2023/06/15 05:28:05;;;;;;;1.05;0.90;;;17.10;99.90;;;;;;4423034;32;20085;-65
2023/06/15 05:30:30;;;;;;;0.85;0.45;;;17.10;99.90;;;;;;4422862;32;20073;-65
2023/06/15 05:32:56;;;;;;;2.45;1.50;;;17.10;99.90;;;;;;4419881;32;20102;-65
2023/06/15 05:35:23;;;;;;;2.05;0.55;;;17.10;99.90;;;;;;4424940;32;20053;-65
2023/06/15 05:37:52;;;;;;;1.08;0.98;;;17.20;99.90;;;;;;4416225;32;20143;-65
2023/06/15 05:40:18;;;;;;;0.52;0.52;;;17.20;99.90;;;;;;4426414;32;20125;-65
2023/06/15 05:42:44;;;;;;;0.32;0.32;;;17.20;99.90;;;;;;4423528;32;20097;-65
2023/06/15 05:45:10;;;;;;;0.30;0.30;;;17.30;99.90;;;;;;4420577;32;20086;-65
2023/06/15 05:47:36;;;;;;;0.32;0.32;;;17.30;99.90;;;;;;4421336;32;20088;-65
2023/06/15 05:50:03;;;;;;;0.60;0.60;;;17.40;99.90;;;;;;4424890;32;20184;-64
2023/06/15 05:52:28;;;;;;;0.45;0.45;;;17.40;99.90;;;;;;4421763;32;20106;-65
2023/06/15 05:54:54;;;;;;;0.73;0.73;;;17.50;99.90;;;;;;4419850;32;20081;-65
2023/06/15 05:57:19;;;;;;;0.40;0.40;;;17.60;99.90;;;;;;4415206;32;20109;-65
2023/06/15 05:59:48;;;;;;;0.60;0.50;;;17.70;99.90;;;;;;4409198;32;20201;-65
2023/06/15 06:02:14;;;;;;;0.50;0.50;;;17.90;99.90;;;;;;4400608;32;20078;-65
2023/06/15 06:04:40;;;;;;;2.17;0.40;;;18.00;99.90;;;;;;4402046;32;20105;-65
2023/06/15 06:07:06;;;;;;;1.45;0.68;;;18.00;99.90;;;;;;4401528;32;20819;-65
2023/06/15 06:09:33;;;;;;;0.47;0.43;;;18.00;99.90;;;;;;4403963;32;20116;-65
2023/06/15 06:12:00;;;;;;;0.20;0.20;;;18.10;99.90;;;;;;4404367;32;20106;-65
2023/06/15 06:14:26;;;;;;;3.67;1.23;;;18.20;99.90;;;;;;4404560;32;20628;-65
2023/06/15 06:16:52;;;;;;;1.00;0.82;;;18.30;99.90;;;;;;4405825;32;20117;-65
2023/06/15 06:19:18;;;;;;;0.57;0.43;;;18.30;99.90;;;;;;4405326;32;20082;-65
2023/06/15 06:21:43;;;;;;;0.35;0.35;;;18.50;99.90;;;;;;4400345;32;20385;-65
2023/06/15 06:24:08;;;;;;;0.30;0.30;;;18.30;99.90;;;;;;4404403;32;20105;-65
2023/06/15 06:26:35;;;;;;;2.97;0.75;;;18.40;99.90;;;;;;4405189;32;20731;-65
2023/06/15 06:29:01;;;;;;;0.70;0.70;;;18.40;99.90;;;;;;4406565;32;20082;-65
2023/06/15 06:31:26;;;;;;;0.30;0.30;;;18.50;99.90;;;;;;4408272;32;20260;-65
2023/06/15 06:33:52;;;;;;;0.20;0.20;;;18.60;99.90;;;;;;4403483;32;20412;-65
2023/06/15 06:36:17;;;;;;;0.40;0.40;;;18.60;99.90;;;;;;4401875;32;20166;-65
2023/06/15 06:38:43;;;;;;;1.87;0.77;;;18.80;99.90;;;;;;4406962;32;21814;-65
2023/06/15 06:41:09;;;;;;;0.20;0.20;;;18.90;99.90;;;;;;4404863;32;20310;-65
2023/06/15 06:43:35;;;;;;;0.30;0.30;;;18.90;99.90;;;;;;4412962;32;20098;-65
2023/06/15 06:46:01;;;;;;;0.32;0.30;;;19.00;99.90;;;;;;4412815;32;20093;-65
2023/06/15 06:48:27;;;;;;;0.30;0.30;;;18.90;99.90;;;;;;4403742;32;20140;-66
2023/06/15 06:50:52;;;;;;;0.37;0.37;;;18.90;99.90;;;;;;4400883;32;21667;-67
2023/06/15 06:53:18;;;;;;;0.50;0.50;;;19.00;99.90;;;;;;4407086;32;20090;-66
2023/06/15 06:55:44;;;;;;;0.30;0.30;;;18.90;99.90;;;;;;4402360;32;20105;-66
2023/06/15 06:58:11;;;;;;;0.52;0.43;;;18.90;99.90;;;;;;4402764;32;20797;-66
2023/06/15 07:00:36;;;;;;;2.05;0.60;;;18.90;99.90;;;;;;4402375;32;20105;-67
2023/06/15 07:03:02;;;;;;;0.60;0.60;;;19.00;99.90;;;;;;4406446;32;20105;-67
2023/06/15 07:05:27;;;;;;;0.30;0.30;;;19.10;99.90;;;;;;4402554;32;21041;-67
2023/06/15 07:07:53;;;;;;;0.80;0.68;;;19.30;99.90;;;;;;4402567;32;20085;-66
2023/06/15 07:10:18;;;;;;;0.35;0.35;;;19.30;99.90;;;;;;4403190;32;20200;-66
2023/06/15 07:12:44;;;;;;;0.62;0.62;;;19.30;99.90;;;;;;4407745;32;20093;-66
2023/06/15 07:15:10;;;;;;;0.45;0.32;;;19.20;99.90;;;;;;4399527;32;20105;-66
2023/06/15 07:17:36;;;;;;;0.30;0.30;;;19.40;99.90;;;;;;4409223;32;21729;-66
2023/06/15 07:20:01;;;;;;;1.05;0.95;;;19.40;99.90;;;;;;4409082;32;20100;-67
2023/06/15 07:22:26;;;;;;;0.40;0.40;;;19.40;99.90;;;;;;4413738;32;20144;-67
2023/06/15 07:24:52;;;;;;;0.35;0.35;;;19.50;99.90;;;;;;4412650;32;20158;-67
2023/06/15 07:27:18;;;;;;;5.28;0.93;;;19.50;99.90;;;;;;4413273;32;20105;-67
2023/06/15 07:29:44;;;;;;;0.47;0.47;;;19.50;99.60;;;;;;4389560;32;20098;-66
2023/06/15 07:32:10;;;;;;;0.85;0.47;;;19.50;99.80;;;;;;4405139;32;20090;-66
2023/06/15 07:34:35;;;;;;;35.50;1.75;;;19.40;99.50;;;;;;4403625;32;20113;-66
2023/06/15 07:37:01;;;;;;;0.40;0.40;;;19.20;99.50;;;;;;4400480;32;20082;-66
2023/06/15 07:39:27;;;;;;;1.50;0.88;;;19.10;99.90;;;;;;4400094;32;20145;-66
2023/06/15 07:41:52;;;;;;;0.40;0.40;;;19.00;99.90;;;;;;4404411;32;20664;-66
2023/06/15 07:44:18;;;;;;;0.50;0.50;;;19.10;99.90;;;;;;4398141;32;20188;-67
2023/06/15 07:46:43;;;;;;;0.30;0.30;;;19.30;99.90;;;;;;4404475;32;20089;-67
2023/06/15 07:49:09;;;;;;;0.37;0.37;;;19.60;99.50;;;;;;4393231;32;20541;-65
2023/06/15 07:51:35;;;;;;;1.37;1.05;;;19.80;99.50;;;;;;4387371;32;20597;-65
2023/06/15 07:54:01;;;;;;;0.62;0.62;;;20.10;99.10;;;;;;4389975;32;20312;-66
2023/06/15 07:56:27;;;;;;;0.90;0.80;;;20.40;98.10;;;;;;4387508;32;20897;-67
2023/06/15 07:58:53;;;;;;;0.60;0.60;;;20.70;97.70;;;;;;4381578;32;20749;-66
2023/06/15 08:01:19;;;;;;;1.30;0.50;;;20.80;97.20;;;;;;4393051;32;20093;-66
2023/06/15 08:03:45;;;;;;;0.62;0.62;;;20.90;97.10;;;;;;4386685;32;20120;-65
2023/06/15 08:06:11;;;;;;;0.40;0.40;;;20.90;97.00;;;;;;4391630;32;20108;-63
2023/06/15 08:08:37;;;;;;;2.28;1.23;;;20.80;97.30;;;;;;4391952;32;20109;-66
2023/06/15 08:11:03;;;;;;;1.35;0.40;;;20.80;97.30;;;;;;4397428;32;20126;-64
2023/06/15 08:13:29;;;;;;;2.60;0.50;;;20.70;97.30;;;;;;4396321;32;20136;-63
2023/06/15 08:15:55;;;;;;;1.83;0.82;;;20.60;97.60;;;;;;4397263;32;20470;-66
2023/06/15 08:18:20;;;;;;;0.50;0.50;;;20.50;98.00;;;;;;4386276;32;20089;-66
2023/06/15 08:20:46;;;;;;;0.60;0.60;;;20.30;97.80;;;;;;4389284;32;20105;-65
2023/06/15 08:23:11;;;;;;;0.25;0.25;;;20.30;98.00;;;;;;4400946;32;20109;-66
2023/06/15 08:25:37;;;;;;;0.50;0.50;;;20.40;98.10;;;;;;4391342;32;20081;-66
2023/06/15 08:28:02;;;;;;;1.33;0.50;;;20.70;97.80;;;;;;4403865;32;20277;-65
2023/06/15 08:30:28;;;;;;;0.62;0.62;;;21.10;97.50;;;;;;4390642;32;20482;-65
2023/06/15 08:32:53;;;;;;;0.57;0.55;;;21.40;96.20;;;;;;4395220;32;20731;-66
2023/06/15 08:35:19;;;;;;;0.65;0.65;;;21.80;96.10;;;;;;4394200;32;20242;-65
2023/06/15 08:37:45;;;;;;;0.43;0.40;;;21.80;96.10;;;;;;4390487;32;21244;-67
2023/06/15 08:40:11;;;;;;;0.73;0.65;;;21.90;95.50;;;;;;4384733;32;20093;-65
2023/06/15 08:42:38;;;;;;;3.80;0.85;;;21.80;95.30;;;;;;4386398;32;20436;-65
2023/06/15 08:45:05;;;;;;;0.30;0.30;;;21.90;95.70;;;;;;4396199;32;20370;-65
2023/06/15 08:47:33;;;;;;;0.50;0.50;;;22.20;95.10;;;;;;4402340;32;20698;-64
2023/06/15 08:50:01;;;;;;;0.30;0.30;;;22.50;94.50;;;;;;4397033;32;20093;-65
2023/06/15 08:52:30;;;;;;;0.62;0.62;;;22.60;94.20;;;;;;4402032;32;20084;-66
2023/06/15 08:54:57;;;;;;;0.40;0.40;;;22.80;93.70;;;;;;4392805;32;20125;-66
2023/06/15 08:57:23;;;;;;;1.40;0.85;;;23.10;93.40;;;;;;4392907;32;20080;-64
2023/06/15 08:59:48;;;;;;;0.45;0.45;;;23.10;93.10;;;;;;4389449;32;20103;-66
2023/06/15 09:02:20;;;;;;;0.50;0.50;;;23.10;92.90;;;;;;4389915;32;20097;-64
2023/06/15 09:04:48;;;;;;;1.85;1.05;;;23.10;93.20;;;;;;4393800;32;20100;-67
2023/06/15 09:07:13;;;;;;;3.80;0.70;;;23.00;93.10;;;;;;4397444;32;20791;-65
2023/06/15 09:09:39;;;;;;;0.50;0.50;;;22.80;93.20;;;;;;4391744;32;20114;-65
2023/06/15 09:12:17;;;;;;;7.93;1.05;;;22.70;93.20;;;;;;4397241;32;20174;-66
2023/06/15 09:14:43;;;;;;;0.40;0.40;;;22.70;93.40;;;;;;4404557;32;20092;-64
2023/06/15 09:17:13;;;;;;;0.62;0.37;;;23.00;92.50;;;;;;4393501;32;20118;-62
2023/06/15 09:19:38;;;;;;;0.40;0.40;;;23.20;92.40;;;;;;4396130;32;20451;-62
2023/06/15 09:22:07;;;;;;;0.50;0.50;;;23.20;92.20;;;;;;4391826;32;20070;-65
2023/06/15 09:24:39;;;;;;;0.35;0.35;;;23.20;91.70;;;;;;4369494;32;20894;-64
2023/06/15 09:27:15;;;;;;;1.67;0.60;;;23.40;92.10;;;;;;4373663;32;20101;-63
2023/06/15 09:30:01;;;;;;;5.15;1.40;;;23.60;91.90;;;;;;4369150;32;20603;-63
2023/06/15 09:32:29;;;;;;;0.40;0.40;;;23.50;91.60;;;;;;4367287;32;20285;-64
2023/06/15 09:34:58;;;;;;;0.75;0.65;;;23.50;91.40;;;;;;4364235;32;20860;-66
2023/06/15 09:37:28;;;;;;;0.40;0.40;;;23.50;91.00;;;;;;4382208;32;20106;-63
2023/06/15 09:39:54;;;;;;;1.00;0.55;;;23.70;90.50;;;;;;4368039;32;20306;-65
2023/06/15 09:42:27;;;;;;;0.65;0.57;;;23.70;90.50;;;;;;4388425;32;20077;-66
2023/06/15 09:44:55;;;;;;;0.40;0.40;;;23.80;90.20;;;;;;4382748;32;20174;-64
2023/06/15 09:47:29;;;;;;;0.40;0.40;;;23.90;90.10;;;;;;4367671;32;20104;-66
2023/06/15 09:49:54;;;;;;;0.70;0.40;;;24.10;85.90;;;;;;4382605;32;20113;-64
2023/06/15 09:52:20;;;;;;;1.87;0.80;;;24.20;85.60;;;;;;4384841;32;20403;-63
2023/06/15 09:54:47;;;;;;;0.22;0.22;;;24.10;86.90;;;;;;4381828;32;20201;-64
2023/06/15 09:57:14;;;;;;;0.50;0.50;;;24.00;87.70;;;;;;4382282;32;20506;-63
2023/06/15 09:59:39;;;;;;;0.52;0.52;;;24.00;88.50;;;;;;4383749;32;20097;-65
2023/06/15 10:02:10;;;;;;;0.68;0.68;;;23.80;86.20;;;;;;4382420;32;20542;-61
2023/06/15 10:04:39;;;;;;;0.30;0.30;;;23.80;87.10;;;;;;4392366;32;20109;-64
2023/06/15 10:07:05;;;;;;;0.65;0.37;;;23.80;86.70;;;;;;4392298;32;20113;-66
2023/06/15 10:09:37;;;;;;;2.33;0.68;;;23.70;88.10;;;;;;4382686;32;20098;-63
2023/06/15 10:12:12;;;;;;;0.40;0.40;;;23.70;88.50;;;;;;4389692;32;20088;-63
2023/06/15 10:14:45;;;;;;;0.43;0.43;;;23.50;90.30;;;;;;4384953;32;20585;-63
2023/06/15 10:17:13;;;;;;;2.25;1.15;;;23.40;91.30;;;;;;4386113;32;20597;-64
2023/06/15 10:19:43;;;;;;;0.93;0.60;;;23.20;91.00;;;;;;4397667;32;20101;-66
2023/06/15 10:22:18;;;;;;;0.30;0.30;;;23.10;91.10;;;;;;4404105;32;20423;-65
2023/06/15 10:24:45;;;;;;;0.82;0.82;;;23.10;91.00;;;;;;4401175;32;20069;-65
2023/06/15 10:27:11;;;;;;;0.37;0.37;;;22.90;90.70;;;;;;4402461;32;20112;-65
2023/06/15 10:29:54;;;;;;;0.77;0.77;;;23.00;90.80;;;;;;4386601;32;20236;-65
2023/06/15 10:32:42;;;;;;;0.43;0.43;;;23.00;90.90;;;;;;4385871;32;20884;-64
2023/06/15 10:35:21;;;;;;;0.32;0.32;;;22.90;91.20;;;;;;4389777;32;20085;-64
2023/06/15 10:38:04;;;;;;;1.37;1.05;;;23.00;90.80;;;;;;4388173;32;20121;-64
2023/06/15 10:40:35;;;;;;;0.30;0.30;;;22.90;90.90;;;;;;4387941;32;22263;-65
2023/06/15 10:43:02;;;;;;;0.30;0.30;;;22.90;90.30;;;;;;4399107;32;20109;-63
2023/06/15 10:45:29;;;;;;;0.98;0.50;;;22.80;90.50;;;;;;4385295;32;21510;-62
2023/06/15 10:47:57;;;;;;;4.72;0.55;;;22.80;90.70;;;;;;4399562;32;20110;-62
2023/06/15 10:50:24;;;;;;;0.60;0.60;;;22.80;91.00;;;;;;4397115;32;20654;-64
2023/06/15 10:52:50;;;;;;;0.62;0.62;;;22.70;91.50;;;;;;4392539;32;20682;-65
2023/06/15 10:55:16;;;;;;;0.25;0.25;;;22.80;91.90;;;;;;4398019;32;20161;-66
2023/06/15 10:57:41;;;;;;;1.05;0.77;;;22.80;91.70;;;;;;4389380;32;20081;-65
2023/06/15 11:00:10;;;;;;;0.40;0.40;;;22.70;91.80;;;;;;4381404;32;20166;-65
2023/06/15 11:02:38;;;;;;;0.40;0.40;;;22.60;92.00;;;;;;4383376;32;20128;-65
2023/06/15 11:05:08;;;;;;;0.50;0.50;;;22.70;91.80;;;;;;4373113;32;21366;-67
2023/06/15 11:07:37;;;;;;;1.27;0.73;;;22.70;91.90;;;;;;4386473;32;20101;-65
2023/06/15 11:10:10;;;;;;;0.35;0.30;;;22.70;91.50;;;;;;4372040;32;20541;-67
2023/06/15 11:12:38;;;;;;;0.35;0.35;;;22.70;91.50;;;;;;4391952;32;20101;-64
2023/06/15 11:15:05;;;;;;;0.40;0.40;;;22.80;91.30;;;;;;4386178;32;20145;-67
2023/06/15 11:17:51;;;;;;;2.17;0.88;;;22.80;91.40;;;;;;4375668;32;20105;-67
2023/06/15 11:20:39;;;;;;;0.40;0.40;;;22.70;90.80;;;;;;4370550;32;20109;-67
2023/06/15 11:23:10;;;;;;;0.30;0.30;;;22.70;90.90;;;;;;4370535;32;20200;-66
2023/06/15 11:25:38;;;;;;;0.40;0.40;;;22.60;89.50;;;;;;4388905;32;20081;-65
2023/06/15 11:28:04;;;;;;;0.57;0.57;;;22.50;90.20;;;;;;4387364;32;20581;-66
2023/06/15 11:30:29;;;;;;;6.03;0.60;;;22.40;90.10;;;;;;4390768;32;20090;-64
2023/06/15 11:32:56;;;;;;;0.47;0.47;;;22.40;90.10;;;;;;4392915;32;20089;-67
2023/06/15 11:35:21;;;;;;;0.47;0.45;;;22.40;88.60;;;;;;4390648;32;21174;-66
2023/06/15 11:37:47;;;;;;;0.30;0.30;;;22.30;89.70;;;;;;4393855;32;20406;-67
2023/06/15 11:40:16;;;;;;;1.55;0.50;;;22.20;90.20;;;;;;4382483;32;20636;-66
2023/06/15 11:42:41;;;;;;;0.70;0.70;;;22.20;90.20;;;;;;4389141;32;20107;-64
2023/06/15 11:45:18;;;;;;;0.45;0.45;;;22.20;90.60;;;;;;4373581;32;112895;-65
2023/06/15 11:47:44;;;;;;;0.40;0.40;;;22.30;90.20;;;;;;4383683;32;20183;-68
2023/06/15 11:50:09;;;;;;;0.35;0.35;;;22.30;90.30;;;;;;4391364;32;20783;-65
2023/06/15 11:52:42;;;;;;;0.52;0.40;;;22.40;90.10;;;;;;4389804;32;20541;-65
2023/06/15 11:55:08;;;;;;;0.40;0.40;;;22.50;90.30;;;;;;4392573;32;20431;-66
2023/06/15 11:57:34;;;;;;;0.50;0.50;;;22.70;89.70;;;;;;4393325;32;20085;-66
2023/06/15 12:00:00;;;;;;;4.75;1.20;;;22.70;89.40;;;;;;4393225;32;20109;-65
2023/06/15 12:02:25;;;;;;;9.52;1.23;;;22.90;90.20;;;;;;4392075;32;20183;-66
2023/06/15 12:04:56;;;;;;;0.40;0.40;;;23.30;89.20;;;;;;4388950;32;20088;-65
2023/06/15 12:07:21;;;;;;;0.37;0.37;;;23.50;87.50;;;;;;4389365;32;20117;-69
2023/06/15 12:09:47;;;;;;;0.73;0.65;;;23.60;85.90;;;;;;4391733;32;20081;-68
2023/06/15 12:12:30;;;;;;;0.47;0.43;;;23.60;85.20;;;;;;4383874;32;20557;-67
2023/06/15 12:14:59;;;;;;;0.40;0.40;;;23.70;85.30;;;;;;4385493;32;20480;-67
2023/06/15 12:17:33;;;;;;;1.08;0.93;;;23.60;85.50;;;;;;4383523;32;20085;-67
2023/06/15 12:20:03;;;;;;;1.27;0.75;;;23.60;87.50;;;;;;4391325;32;20139;-68
2023/06/15 12:22:34;;;;;;;2.35;0.50;;;23.40;87.80;;;;;;4366997;32;20097;-64
2023/06/15 12:25:00;;;;;;;0.30;0.30;;;23.40;87.00;;;;;;4386316;32;20090;-63
2023/06/15 12:27:26;;;;;;;0.57;0.57;;;23.20;87.00;;;;;;4387166;32;20065;-65
2023/06/15 12:29:53;;;;;;;0.30;0.30;;;23.10;85.20;;;;;;4390517;32;20555;-66
2023/06/15 12:32:23;;;;;;;0.30;0.30;;;23.20;83.20;;;;;;4390855;32;20077;-65
2023/06/15 12:34:51;;;;;;;1.45;0.98;;;23.50;85.20;;;;;;4384290;32;20197;-66
2023/06/15 12:37:16;;;;;;;0.40;0.40;;;24.50;85.40;;;;;;4384562;32;20081;-65
2023/06/15 12:39:44;;;;;;;4.68;1.08;;;25.40;83.90;;;;;;4399670;32;20073;-66
2023/06/15 12:42:10;;;;;;;0.25;0.25;;;26.40;79.30;;;;;;4401694;32;20671;-67
2023/06/15 12:44:36;;;;;;;0.55;0.52;;;26.60;77.50;;;;;;4400820;32;20171;-62